createdAt,value
2023-07-25T00:01:46.175Z,19.33
2023-07-25T00:04:13.902Z,19.47
2023-07-25T00:06:41.653Z,19.55
2023-07-25T00:09:09.447Z,19.31
2023-07-25T00:11:37.129Z,19.35
2023-07-25T00:14:06.207Z,19.17
2023-07-25T00:16:33.931Z,19.11
2023-07-25T00:19:01.684Z,18.98
2023-07-25T00:21:29.633Z,19.22
2023-07-25T00:23:57.659Z,19.26
2023-07-25T00:26:25.336Z,19.09
2023-07-25T00:28:53.124Z,19.17
2023-07-25T00:31:22.213Z,19.08
2023-07-25T00:33:49.918Z,19.09
2023-07-25T00:36:17.574Z,19.15
2023-07-25T00:38:45.223Z,18.62
2023-07-25T00:41:12.938Z,18.87
2023-07-25T00:43:40.627Z,18.94
2023-07-25T00:46:08.439Z,19.04
2023-07-25T00:48:37.695Z,19.00
2023-07-25T00:51:06.452Z,18.91
2023-07-25T00:53:34.211Z,19.01
2023-07-25T00:56:02.570Z,19.17
2023-07-25T00:58:30.513Z,18.76
2023-07-25T01:01:03.739Z,19.12
2023-07-25T01:03:32.210Z,18.67
2023-07-25T01:06:04.046Z,18.70
2023-07-25T01:08:31.855Z,18.73
2023-07-25T01:10:59.530Z,18.83
2023-07-25T01:13:27.248Z,18.70
2023-07-25T01:15:55.604Z,18.63
2023-07-25T01:18:23.442Z,18.71
2023-07-25T01:20:51.550Z,18.78
2023-07-25T01:23:21.765Z,18.69
2023-07-25T01:25:50.782Z,18.56
2023-07-25T01:28:18.504Z,18.50
2023-07-25T01:30:46.323Z,18.70
2023-07-25T01:33:14.015Z,18.67
2023-07-25T01:35:41.776Z,18.53
2023-07-25T01:38:09.585Z,18.76
2023-07-25T01:40:40.515Z,18.53
2023-07-25T01:43:10.022Z,18.54
2023-07-25T01:45:38.025Z,18.41
2023-07-25T01:48:06.060Z,18.58
2023-07-25T01:50:33.743Z,18.59
2023-07-25T01:53:01.428Z,18.63
2023-07-25T01:55:29.162Z,18.62
2023-07-25T01:57:56.924Z,18.22
2023-07-25T02:00:25.940Z,18.50
2023-07-25T02:02:53.676Z,18.47
2023-07-25T02:05:21.343Z,17.78
2023-07-25T02:07:49.034Z,18.09
2023-07-25T02:10:16.972Z,18.44
2023-07-25T02:12:44.636Z,18.35
2023-07-25T02:15:12.377Z,18.36
2023-07-25T02:17:41.457Z,18.01
2023-07-25T02:20:09.971Z,17.75
2023-07-25T02:22:37.624Z,17.86
2023-07-25T02:25:06.283Z,18.25
2023-07-25T02:27:34.273Z,18.18
2023-07-25T02:30:02.001Z,18.09
2023-07-25T02:32:29.668Z,17.89
2023-07-25T02:34:58.695Z,17.82
2023-07-25T02:37:26.463Z,17.91
2023-07-25T02:39:54.142Z,18.12
2023-07-25T02:42:21.858Z,17.77
2023-07-25T02:44:49.540Z,17.99
2023-07-25T02:47:17.206Z,17.96
2023-07-25T02:49:44.928Z,17.95
2023-07-25T02:52:13.927Z,17.73
2023-07-25T02:54:41.735Z,17.65
2023-07-25T02:57:09.491Z,17.87
2023-07-25T02:59:37.204Z,17.63
2023-07-25T03:02:05.298Z,17.54
2023-07-25T03:04:33.019Z,17.61
2023-07-25T03:07:00.739Z,17.43
2023-07-25T03:09:29.963Z,17.48
2023-07-25T03:11:57.689Z,17.62
2023-07-25T03:14:25.362Z,17.46
2023-07-25T03:16:53.154Z,17.57
2023-07-25T03:19:20.890Z,17.61
2023-07-25T03:21:48.561Z,17.67
2023-07-25T03:24:16.255Z,17.68
2023-07-25T03:26:45.375Z,17.78
2023-07-25T03:29:13.087Z,17.72
2023-07-25T03:31:40.781Z,18.02
2023-07-25T03:34:08.896Z,17.94
2023-07-25T03:36:36.595Z,17.87
2023-07-25T03:39:04.263Z,17.60
2023-07-25T03:41:32.247Z,17.44
2023-07-25T03:44:01.567Z,17.61
2023-07-25T03:46:29.372Z,17.41
2023-07-25T03:48:59.206Z,17.69
2023-07-25T03:51:27.168Z,17.85
2023-07-25T03:53:55.678Z,17.88
2023-07-25T03:56:23.453Z,18.00
2023-07-25T03:58:51.213Z,17.98
2023-07-25T04:01:20.203Z,17.83
2023-07-25T04:03:48.036Z,18.08
2023-07-25T04:06:16.059Z,17.90
2023-07-25T04:08:43.708Z,17.88
2023-07-25T04:11:11.429Z,17.40
2023-07-25T04:13:39.149Z,17.49
2023-07-25T04:16:07.516Z,17.67
2023-07-25T04:18:36.605Z,18.14
2023-07-25T04:21:04.272Z,18.44
2023-07-25T04:23:32.014Z,18.10
2023-07-25T04:25:59.829Z,18.35
2023-07-25T04:28:29.276Z,18.16
2023-07-25T04:30:59.187Z,18.35
2023-07-25T04:33:26.958Z,18.15
2023-07-25T04:35:55.964Z,17.98
2023-07-25T04:38:23.766Z,18.06
2023-07-25T04:40:51.465Z,18.27
2023-07-25T04:43:19.132Z,18.50
2023-07-25T04:45:53.063Z,18.38
2023-07-25T04:48:22.566Z,18.66
2023-07-25T04:50:50.212Z,18.69
2023-07-25T04:53:19.352Z,18.71
2023-07-25T04:55:47.043Z,18.97
2023-07-25T04:58:14.863Z,19.30
2023-07-25T05:00:42.542Z,19.40
2023-07-25T05:03:10.269Z,19.65
2023-07-25T05:05:38.143Z,19.95
2023-07-25T05:08:05.900Z,20.49
2023-07-25T05:10:36.371Z,22.03
2023-07-25T05:13:04.108Z,23.73
2023-07-25T05:15:31.859Z,24.38
2023-07-25T05:17:59.558Z,25.26
2023-07-25T05:20:27.358Z,25.42
2023-07-25T05:22:55.044Z,24.81
2023-07-25T05:25:22.714Z,23.37
2023-07-25T05:27:51.802Z,23.93
2023-07-25T05:30:19.620Z,25.93
2023-07-25T05:32:47.661Z,25.85
2023-07-25T05:35:15.357Z,27.37
2023-07-25T05:37:43.011Z,27.44
2023-07-25T05:40:10.890Z,25.07
2023-07-25T05:42:38.584Z,23.85
2023-07-25T05:45:08.753Z,23.25
2023-07-25T05:47:36.410Z,22.49
2023-07-25T05:50:05.149Z,22.05
2023-07-25T05:52:32.925Z,21.47
2023-07-25T05:55:00.727Z,22.92
2023-07-25T05:57:28.461Z,25.30
2023-07-25T05:59:56.210Z,26.95
2023-07-25T06:02:25.262Z,28.59
2023-07-25T06:04:52.918Z,29.69
2023-07-25T06:07:23.428Z,29.46
2023-07-25T06:09:51.470Z,28.67
2023-07-25T06:12:19.433Z,27.97
2023-07-25T06:14:47.453Z,27.74
2023-07-25T06:17:15.171Z,27.75
2023-07-25T06:19:45.790Z,27.05
2023-07-25T06:22:15.515Z,27.69
2023-07-25T06:24:43.751Z,29.35
2023-07-25T06:27:11.523Z,29.20
2023-07-25T06:29:39.170Z,27.58
2023-07-25T06:32:07.931Z,26.40
2023-07-25T06:34:35.681Z,25.83
2023-07-25T06:37:04.838Z,26.13
2023-07-25T06:39:32.536Z,26.39
2023-07-25T06:42:00.268Z,28.11
2023-07-25T06:44:27.956Z,28.78
2023-07-25T06:46:55.728Z,30.30
2023-07-25T06:49:23.534Z,30.49
2023-07-25T06:51:51.166Z,30.66
2023-07-25T06:54:20.329Z,31.73
2023-07-25T06:56:47.968Z,32.31
2023-07-25T06:59:15.670Z,31.25
2023-07-25T07:01:43.336Z,29.67
2023-07-25T07:04:11.456Z,30.53
2023-07-25T07:06:39.486Z,28.90
2023-07-25T07:09:07.205Z,28.94
2023-07-25T07:11:36.304Z,28.95
2023-07-25T07:14:04.063Z,28.12
2023-07-25T07:16:31.998Z,27.09
2023-07-25T07:18:59.763Z,27.47
2023-07-25T07:21:27.465Z,25.39
2023-07-25T07:23:55.221Z,26.35
2023-07-25T07:26:22.924Z,25.80
2023-07-25T07:28:52.251Z,25.68
2023-07-25T07:31:24.458Z,25.25
2023-07-25T07:33:52.214Z,25.20
2023-07-25T07:36:19.909Z,25.03
2023-07-25T07:38:50.734Z,25.32
2023-07-25T07:41:18.442Z,24.72
2023-07-25T07:43:46.205Z,24.39
2023-07-25T07:46:15.256Z,23.99
2023-07-25T07:48:44.422Z,23.77
2023-07-25T07:51:12.279Z,23.42
2023-07-25T07:53:40.467Z,22.90
2023-07-25T07:56:09.314Z,22.33
2023-07-25T07:58:37.086Z,22.61
2023-07-25T08:01:05.083Z,22.98
2023-07-25T08:03:34.151Z,22.53
2023-07-25T08:06:01.972Z,23.65
2023-07-25T08:08:29.633Z,23.55
2023-07-25T08:10:57.295Z,23.88
2023-07-25T08:13:24.998Z,25.49
2023-07-25T08:15:52.708Z,27.22
2023-07-25T08:18:21.315Z,28.10
2023-07-25T08:20:56.518Z,27.62
2023-07-25T08:23:24.288Z,28.83
2023-07-25T08:25:52.262Z,29.72
2023-07-25T08:28:20.026Z,30.40
2023-07-25T08:30:48.244Z,30.29
2023-07-25T08:33:20.164Z,31.55
2023-07-25T08:35:51.777Z,32.63
2023-07-25T08:38:19.558Z,31.20
2023-07-25T08:40:48.712Z,31.16
2023-07-25T08:43:19.860Z,30.15
2023-07-25T08:45:50.168Z,29.38
2023-07-25T08:48:21.511Z,29.14
2023-07-25T08:50:53.820Z,28.90
2023-07-25T08:53:25.232Z,29.83
2023-07-25T08:55:53.646Z,28.54
2023-07-25T08:58:21.817Z,27.54
2023-07-25T09:00:50.847Z,25.18
2023-07-25T09:03:19.041Z,24.48
2023-07-25T09:05:47.810Z,24.28
2023-07-25T09:08:16.815Z,24.21
2023-07-25T09:10:46.306Z,24.18
2023-07-25T09:13:14.107Z,24.15
2023-07-25T09:15:41.806Z,24.81
2023-07-25T09:18:09.513Z,24.45
2023-07-25T09:20:38.502Z,24.08
2023-07-25T09:23:06.213Z,24.21
2023-07-25T09:25:35.346Z,22.86
2023-07-25T09:28:03.168Z,22.33
2023-07-25T09:30:31.000Z,21.37
2023-07-25T09:32:58.705Z,22.27
2023-07-25T09:35:27.296Z,22.27
2023-07-25T09:37:56.557Z,21.93
2023-07-25T09:40:24.514Z,22.76
2023-07-25T09:42:53.716Z,22.99
2023-07-25T09:45:21.840Z,22.17
2023-07-25T09:47:54.556Z,22.62
2023-07-25T09:50:27.917Z,22.82
2023-07-25T09:52:55.784Z,23.49
2023-07-25T09:55:23.705Z,24.00
2023-07-25T09:57:53.617Z,23.93
2023-07-25T10:00:21.465Z,23.70
2023-07-25T10:02:51.222Z,23.81
2023-07-25T10:05:19.556Z,24.23
2023-07-25T10:07:50.396Z,24.93
2023-07-25T10:10:19.682Z,24.63
2023-07-25T10:12:47.681Z,24.58
2023-07-25T10:15:17.142Z,24.95
2023-07-25T10:17:45.315Z,24.51
2023-07-25T10:20:21.876Z,25.51
2023-07-25T10:22:49.985Z,25.04
2023-07-25T10:25:22.512Z,24.80
2023-07-25T10:27:55.373Z,24.48
2023-07-25T10:30:25.637Z,25.12
2023-07-25T10:32:55.290Z,24.81
2023-07-25T10:35:43.386Z,24.81
2023-07-25T10:38:12.675Z,24.53
2023-07-25T10:40:56.643Z,22.14
2023-07-25T10:43:29.469Z,20.85
2023-07-25T10:46:03.327Z,21.23
2023-07-25T10:48:45.818Z,20.84
2023-07-25T10:51:16.512Z,21.02
2023-07-25T10:54:08.623Z,20.69
2023-07-25T10:56:36.686Z,21.54
2023-07-25T10:59:09.880Z,22.14
2023-07-25T11:01:48.030Z,22.44
2023-07-25T11:04:27.836Z,22.60
2023-07-25T11:06:57.516Z,22.68
2023-07-25T11:09:26.617Z,23.04
2023-07-25T11:11:56.146Z,22.83
2023-07-25T11:14:24.458Z,22.93
2023-07-25T11:16:58.258Z,22.64
2023-07-25T11:19:30.025Z,22.76
2023-07-25T11:21:58.538Z,22.82
2023-07-25T11:24:26.865Z,23.13
2023-07-25T11:26:54.960Z,23.54
2023-07-25T11:29:23.723Z,23.73
2023-07-25T11:31:52.974Z,24.48
2023-07-25T11:34:22.867Z,25.02
2023-07-25T11:36:50.720Z,25.03
2023-07-25T11:39:20.168Z,24.86
2023-07-25T11:41:48.190Z,24.37
2023-07-25T11:44:19.748Z,24.76
2023-07-25T11:46:51.210Z,24.57
2023-07-25T11:49:40.436Z,24.85
2023-07-25T11:52:11.584Z,24.12
2023-07-25T11:54:42.054Z,24.18
2023-07-25T11:57:12.044Z,24.27
2023-07-25T11:59:43.518Z,23.37
2023-07-25T12:02:13.569Z,22.79
2023-07-25T12:04:46.587Z,22.52
2023-07-25T12:07:15.405Z,23.14
2023-07-25T12:09:51.417Z,23.37
2023-07-25T12:12:19.783Z,23.97
2023-07-25T12:14:58.609Z,24.10
2023-07-25T12:17:44.199Z,24.09
2023-07-25T12:20:18.135Z,23.47
2023-07-25T12:22:46.207Z,23.38
2023-07-25T12:25:18.665Z,23.58
2023-07-25T12:27:50.486Z,23.41
2023-07-25T12:30:21.559Z,23.64
2023-07-25T12:32:49.376Z,24.23
2023-07-25T12:35:18.640Z,24.21
2023-07-25T12:37:46.301Z,24.11
2023-07-25T12:40:14.154Z,24.15
2023-07-25T12:42:42.027Z,23.92
2023-07-25T12:45:11.550Z,24.07
2023-07-25T12:47:39.994Z,23.85
2023-07-25T12:50:10.296Z,23.81
2023-07-25T12:52:40.752Z,24.16
2023-07-25T12:55:09.513Z,24.28
2023-07-25T12:57:38.715Z,23.81
2023-07-25T13:00:08.675Z,24.07
2023-07-25T13:02:38.043Z,24.38
2023-07-25T13:05:07.512Z,24.57
2023-07-25T13:07:36.292Z,24.97
2023-07-25T13:10:07.634Z,25.13
2023-07-25T13:12:35.961Z,24.43
2023-07-25T13:15:06.687Z,23.45
2023-07-25T13:17:36.244Z,24.00
2023-07-25T13:20:08.291Z,24.39
2023-07-25T13:22:38.672Z,24.92
2023-07-25T13:25:08.628Z,24.65
2023-07-25T13:27:36.480Z,24.40
2023-07-25T13:30:05.408Z,23.90
2023-07-25T13:32:33.738Z,23.57
2023-07-25T13:35:01.820Z,23.91
2023-07-25T13:37:29.728Z,23.66
2023-07-25T13:39:57.688Z,23.22
2023-07-25T13:42:30.098Z,23.38
2023-07-25T13:44:58.013Z,23.61
2023-07-25T13:47:26.539Z,23.41
2023-07-25T13:49:56.658Z,23.42
2023-07-25T13:52:24.625Z,23.71
2023-07-25T13:54:52.601Z,22.90
2023-07-25T13:57:25.614Z,23.96
2023-07-25T14:00:00.420Z,23.42
2023-07-25T14:02:28.879Z,23.26
2023-07-25T14:04:56.751Z,23.42
2023-07-25T14:07:24.623Z,23.81
2023-07-25T14:09:52.624Z,23.57
2023-07-25T14:12:20.505Z,22.84
2023-07-25T14:14:48.666Z,22.45
2023-07-25T14:17:19.486Z,23.17
2023-07-25T14:19:47.589Z,22.50
2023-07-25T14:22:15.594Z,23.18
2023-07-25T14:24:43.826Z,23.22
2023-07-25T14:27:12.022Z,22.72
2023-07-25T14:29:39.963Z,22.57
2023-07-25T14:32:08.958Z,22.41
2023-07-25T14:34:38.382Z,23.14
2023-07-25T14:37:06.998Z,22.24
2023-07-25T14:39:35.279Z,23.69
2023-07-25T14:42:03.210Z,24.16
2023-07-25T14:44:31.364Z,24.31
2023-07-25T14:46:59.893Z,24.32
2023-07-25T14:49:28.014Z,23.93
2023-07-25T14:51:57.500Z,24.31
2023-07-25T14:54:38.789Z,23.64
2023-07-25T14:57:07.289Z,23.91
2023-07-25T14:59:35.344Z,23.48
2023-07-25T15:02:03.212Z,23.42
2023-07-25T15:04:31.074Z,23.53
2023-07-25T15:07:00.072Z,23.29
2023-07-25T15:09:27.768Z,23.10
2023-07-25T15:11:55.521Z,22.72
2023-07-25T15:14:25.026Z,22.63
2023-07-25T15:16:56.701Z,23.13
2023-07-25T15:19:26.519Z,22.60
2023-07-25T15:21:55.826Z,23.25
2023-07-25T15:24:24.889Z,23.04
2023-07-25T15:26:53.360Z,23.81
2023-07-25T15:29:21.106Z,24.30
2023-07-25T15:31:48.772Z,24.26
2023-07-25T15:34:16.485Z,23.36
2023-07-25T15:36:45.558Z,22.67
2023-07-25T15:39:14.378Z,23.63
2023-07-25T15:41:43.383Z,23.89
2023-07-25T15:44:11.678Z,23.82
2023-07-25T15:46:39.340Z,24.40
2023-07-25T15:49:07.036Z,23.42
2023-07-25T15:51:34.955Z,23.51
2023-07-25T15:54:03.023Z,23.26
2023-07-25T15:56:30.675Z,23.21
2023-07-25T15:58:59.728Z,23.56
2023-07-25T16:01:27.445Z,23.55
2023-07-25T16:03:55.191Z,23.60
2023-07-25T16:06:22.846Z,23.25
2023-07-25T16:08:50.525Z,22.74
2023-07-25T16:11:18.240Z,23.23
2023-07-25T16:13:46.377Z,23.23
2023-07-25T16:16:15.578Z,23.61
2023-07-25T16:18:43.332Z,23.20
2023-07-25T16:21:11.820Z,23.18
2023-07-25T16:23:39.596Z,23.07
2023-07-25T16:26:07.938Z,22.87
2023-07-25T16:28:37.260Z,22.55
2023-07-25T16:31:30.189Z,22.74
2023-07-25T16:33:54.475Z,23.14
2023-07-25T16:36:22.142Z,22.77
2023-07-25T16:38:49.825Z,23.25
2023-07-25T16:41:18.702Z,22.24
2023-07-25T16:43:46.556Z,22.55
2023-07-25T16:46:14.260Z,23.17
2023-07-25T16:48:41.970Z,22.74
2023-07-25T16:51:11.472Z,22.75
2023-07-25T16:53:39.259Z,23.17
2023-07-25T16:56:07.099Z,22.48
2023-07-25T16:58:35.803Z,22.42
2023-07-25T17:01:04.538Z,22.84
2023-07-25T17:03:32.557Z,22.12
2023-07-25T17:06:02.680Z,22.67
2023-07-25T17:08:33.484Z,22.49
2023-07-25T17:11:05.395Z,22.11
2023-07-25T17:13:33.273Z,22.63
2023-07-25T17:16:01.219Z,21.97
2023-07-25T17:18:30.308Z,22.79
2023-07-25T17:20:58.306Z,22.04
2023-07-25T17:23:26.228Z,22.31
2023-07-25T17:25:55.262Z,21.95
2023-07-25T17:28:22.951Z,22.03
2023-07-25T17:30:51.145Z,21.86
2023-07-25T17:33:18.868Z,22.14
2023-07-25T17:35:46.573Z,22.19
2023-07-25T17:38:14.833Z,21.80
2023-07-25T17:40:43.063Z,21.82
2023-07-25T17:43:12.172Z,22.11
2023-07-25T17:45:39.870Z,22.20
2023-07-25T17:48:09.747Z,21.95
2023-07-25T17:50:37.490Z,22.01
2023-07-25T17:53:05.771Z,21.51
2023-07-25T17:55:33.592Z,21.56
2023-07-25T17:58:01.270Z,21.78
2023-07-25T18:00:30.380Z,21.67
2023-07-25T18:02:58.207Z,21.68
2023-07-25T18:05:25.945Z,21.78
2023-07-25T18:07:53.584Z,21.81
2023-07-25T18:10:21.325Z,21.63
2023-07-25T18:12:49.017Z,21.72
2023-07-25T18:15:17.027Z,21.63
2023-07-25T18:17:46.319Z,21.66
2023-07-25T18:20:14.128Z,21.31
2023-07-25T18:22:41.849Z,21.64
2023-07-25T18:25:10.610Z,22.03
2023-07-25T18:27:39.781Z,21.43
2023-07-25T18:30:09.611Z,21.45
2023-07-25T18:32:37.388Z,21.59
2023-07-25T18:35:07.006Z,21.18
2023-07-25T18:37:34.778Z,21.41
2023-07-25T18:40:02.465Z,21.61
2023-07-25T18:42:30.161Z,21.67
2023-07-25T18:44:57.829Z,21.47
2023-07-25T18:47:34.493Z,21.43
2023-07-25T18:50:03.256Z,21.74
2023-07-25T18:52:32.274Z,21.62
2023-07-25T18:54:59.955Z,21.65
2023-07-25T18:57:27.726Z,21.16
2023-07-25T18:59:56.934Z,21.27
2023-07-25T19:02:24.885Z,21.60
2023-07-25T19:04:52.674Z,21.67
2023-07-25T19:07:20.398Z,21.78
2023-07-25T19:09:49.459Z,21.43
2023-07-25T19:12:17.354Z,21.29
2023-07-25T19:14:45.030Z,21.47
2023-07-25T19:17:12.763Z,21.45
2023-07-25T19:19:41.244Z,21.25
2023-07-25T19:22:09.731Z,20.98
2023-07-25T19:24:37.533Z,21.18
2023-07-25T19:27:07.153Z,21.09
2023-07-25T19:29:34.829Z,21.19
2023-07-25T19:32:03.277Z,20.96
2023-07-25T19:34:31.035Z,20.67
2023-07-25T19:36:58.717Z,20.53
2023-07-25T19:39:26.350Z,20.49
2023-07-25T19:41:54.348Z,20.49
2023-07-25T19:44:23.461Z,20.35
2023-07-25T19:46:53.108Z,20.57
2023-07-25T19:49:21.195Z,20.42
2023-07-25T19:51:49.280Z,20.06
2023-07-25T19:54:16.960Z,20.36
2023-07-25T19:56:44.741Z,20.51
2023-07-25T19:59:12.675Z,20.60
2023-07-25T20:01:41.741Z,20.34
2023-07-25T20:04:09.507Z,19.95
2023-07-25T20:06:38.145Z,20.09
2023-07-25T20:09:05.858Z,20.29
2023-07-25T20:11:33.598Z,20.61
2023-07-25T20:14:03.041Z,20.65
2023-07-25T20:16:31.408Z,20.49
2023-07-25T20:19:00.715Z,20.80
2023-07-25T20:21:28.428Z,20.69
2023-07-25T20:23:56.288Z,20.75
2023-07-25T20:26:24.079Z,20.49
2023-07-25T20:28:51.862Z,20.45
2023-07-25T20:31:20.140Z,20.40
2023-07-25T20:33:47.821Z,20.54
2023-07-25T20:36:16.901Z,20.65
2023-07-25T20:38:47.546Z,20.41
2023-07-25T20:41:15.281Z,20.63
2023-07-25T20:43:43.494Z,20.53
2023-07-25T20:46:11.213Z,20.67
2023-07-25T20:48:38.892Z,20.44
2023-07-25T20:51:06.614Z,20.42
2023-07-25T20:53:40.661Z,20.49
2023-07-25T20:56:09.070Z,20.16
2023-07-25T20:58:36.873Z,20.08
2023-07-25T21:01:04.605Z,20.09
2023-07-25T21:03:32.536Z,20.09
2023-07-25T21:06:01.325Z,20.02
2023-07-25T21:08:28.990Z,20.00
2023-07-25T21:10:58.523Z,20.09
2023-07-25T21:13:26.215Z,20.11
2023-07-25T21:15:54.199Z,19.99
2023-07-25T21:18:22.044Z,19.52
2023-07-25T21:20:49.953Z,19.51
2023-07-25T21:23:18.072Z,19.40
2023-07-25T21:25:45.761Z,19.56
2023-07-25T21:28:14.810Z,19.16
2023-07-25T21:30:42.770Z,19.47
2023-07-25T21:33:11.120Z,19.36
2023-07-25T21:35:38.893Z,19.18
2023-07-25T21:38:06.540Z,19.29
2023-07-25T21:40:34.254Z,19.16
2023-07-25T21:43:01.925Z,19.00
2023-07-25T21:45:30.936Z,19.05
2023-07-25T21:47:58.740Z,19.02
2023-07-25T21:50:26.469Z,19.01
2023-07-25T21:52:54.173Z,19.00
2023-07-25T21:55:21.909Z,19.14
2023-07-25T21:57:49.580Z,19.16
2023-07-25T22:00:17.580Z,18.90
2023-07-25T22:02:46.675Z,18.81
2023-07-25T22:05:14.444Z,18.77
2023-07-25T22:07:42.149Z,18.72
2023-07-25T22:10:10.127Z,18.62
2023-07-25T22:12:37.802Z,18.59
2023-07-25T22:15:07.791Z,18.48
2023-07-25T22:17:35.521Z,18.38
2023-07-25T22:20:04.975Z,18.49
2023-07-25T22:22:32.889Z,18.30
2023-07-25T22:25:01.191Z,18.35
2023-07-25T22:27:29.011Z,18.36
2023-07-25T22:29:56.673Z,18.22
2023-07-25T22:32:25.049Z,18.31
2023-07-25T22:34:52.843Z,18.22
2023-07-25T22:37:22.849Z,18.44
2023-07-25T22:39:50.536Z,18.38
2023-07-25T22:42:18.214Z,18.36
2023-07-25T22:44:45.921Z,18.46
2023-07-25T22:47:13.653Z,18.29
2023-07-25T22:49:41.315Z,18.42
2023-07-25T22:52:09.134Z,18.19
2023-07-25T22:54:38.259Z,18.00
2023-07-25T22:57:06.355Z,18.00
2023-07-25T22:59:34.199Z,17.81
2023-07-25T23:02:01.852Z,17.88
2023-07-25T23:04:29.621Z,18.06
2023-07-25T23:06:57.771Z,17.91
2023-07-25T23:09:25.485Z,17.70
2023-07-25T23:11:54.571Z,18.02
2023-07-25T23:14:22.675Z,18.07
2023-07-25T23:16:50.483Z,18.08
2023-07-25T23:19:18.201Z,18.02
2023-07-25T23:21:45.919Z,17.76
2023-07-25T23:24:13.673Z,17.65
2023-07-25T23:26:43.044Z,17.64
2023-07-25T23:29:12.282Z,18.07
2023-07-25T23:31:40.092Z,17.97
2023-07-25T23:34:07.917Z,18.09
2023-07-25T23:36:35.669Z,17.83
2023-07-25T23:39:03.330Z,17.68
2023-07-25T23:41:31.183Z,18.08
2023-07-25T23:43:58.939Z,17.69
2023-07-25T23:46:28.082Z,17.83
2023-07-25T23:48:56.218Z,17.93
2023-07-25T23:51:24.289Z,17.84
2023-07-25T23:53:51.981Z,17.81
2023-07-25T23:56:19.656Z,17.53
2023-07-25T23:58:47.354Z,17.09
